This is the latest recevied weather packets stored in our database for station/object VE6CWS-7. If no packets are shown the sender has not sent any weather packets the latest 10 day(s).
| Time | Temp. | Humidity | Pressure | Rain* | Wind** | Luminosity | Snow |
|---|---|---|---|---|---|---|---|
| 1778052609 | 0° C | 55% | 1019.8 hPa | 0 mm | - | - | - |
| 1778051705 | 1.11° C | 53% | 1019.8 hPa | 0 mm | - | - | - |
| 1778050802 | 1.11° C | 56% | 1020 hPa | 0 mm | - | - | - |
| 1778049961 | 0.56° C | 58% | 1020.2 hPa | 0 mm | - | - | - |
| 1778049059 | 1.67° C | 55% | 1020.3 hPa | 0 mm | - | - | - |
| 1778048155 | 1.67° C | 55% | 1020.3 hPa | 0 mm | - | - | - |
| 1778047253 | 1.67° C | 53% | 1020.3 hPa | 0 mm | - | - | - |
| 1778046352 | 2.78° C | 52% | 1020.3 hPa | 0 mm | - | - | - |
| 1778045458 | 2.78° C | 51% | 1020.4 hPa | 0 mm | - | - | - |
| 1778044566 | 2.78° C | 51% | 1020.4 hPa | 0 mm | - | - | - |
| 1778043662 | 3.33° C | 48% | 1020.6 hPa | 0 mm | - | - | - |
| 1778042753 | 3.89° C | 46% | 1020.7 hPa | 0 mm | - | - | - |
| 1778041849 | 3.89° C | 46% | 1020.8 hPa | 0 mm | - | - | - |
| 1778040950 | 4.44° C | 45% | 1020.8 hPa | 0 mm | - | - | - |
| 1778040049 | 5° C | 44% | 1020.9 hPa | 0 mm | - | - | - |
| 1778039160 | 4.44° C | 45% | 1020.8 hPa | 0 mm | - | - | - |
| 1778038249 | 5° C | 46% | 1020.9 hPa | 0 mm | - | - | - |
| 1778037347 | 5.56° C | 45% | 1020.8 hPa | 0 mm | - | - | - |
| 1778036447 | 6.11° C | 43% | 1020.8 hPa | 0 mm | - | - | - |
| 1778035566 | 6.67° C | 43% | 1020.6 hPa | 0 mm | - | - | - |
| 1778034645 | 7.22° C | 42% | 1020.4 hPa | 0 mm | - | - | - |
| 1778033745 | 7.78° C | 39% | 1020.5 hPa | 0 mm | - | - | - |
| 1778032845 | 8.33° C | 35% | 1020.5 hPa | 0 mm | - | - | - |
| 1778031947 | 8.33° C | 35% | 1020.6 hPa | 0 mm | - | - | - |
| 1778031060 | 8.89° C | 34% | 1020.5 hPa | 0 mm | - | - | - |
* Rain latest hour (hover to see other rain measurements)
** Current wind speed in m/s (hover to see current wind gust speed)